Time;durP1;ratioP1;P1;durP2;ratioP2;P2;SDS_P1;SDS_P2;PMS_P1;PMS_P2;Temp;Humidity;BMP_temperature;BMP_pressure;BME280_temperature;BME280_humidity;BME280_pressure;Samples;Min_cycle;Max_cycle;Signal;HPM_P1;HPM_P2
2024/03/25 01:01:46;;;;;;;8.03;7.53;;;7.10;31.40;;;;;;4929597;29;20455;-82
2024/03/25 01:08:58;;;;;;;8.40;7.70;;;7.30;30.20;;;;;;4904138;29;20428;-82
2024/03/25 04:01:54;;;;;;;9.37;8.67;;;8.70;26.60;;;;;;4925368;29;20420;-82
2024/03/25 04:59:10;;;;;;;9.70;9.00;;;8.50;25.20;;;;;;4914942;29;20963;-81
2024/03/25 08:51:33;;;;;;;8.63;8.20;;;9.90;15.30;;;;;;4903004;29;20587;-83
2024/03/25 08:54:40;;;;;;;8.77;8.30;;;9.70;15.60;;;;;;4919084;29;20467;-83
2024/03/25 08:57:34;;;;;;;8.00;7.57;;;9.70;15.90;;;;;;4920691;29;20428;-83
2024/03/25 09:00:12;;;;;;;8.00;7.43;;;10.00;14.70;;;;;;4900166;29;20491;-83
2024/03/25 09:12:55;;;;;;;6.67;6.43;;;10.70;10.20;;;;;;4943029;29;20438;-81
2024/03/25 09:15:25;;;;;;;7.27;6.80;;;11.00;8.90;;;;;;4925082;29;20533;-81
2024/03/25 09:17:50;;;;;;;8.07;7.67;;;11.20;8.70;;;;;;4918995;29;20425;-81
2024/03/25 09:20:32;;;;;;;7.03;6.73;;;11.20;8.10;;;;;;4930607;29;20444;-81
2024/03/25 09:23:12;;;;;;;6.87;6.67;;;11.40;8.50;;;;;;4906672;29;20195;-82
2024/03/25 09:26:17;;;;;;;7.70;7.27;;;11.70;8.10;;;;;;4911585;29;20441;-82
2024/03/25 09:28:49;;;;;;;7.93;7.53;;;12.00;9.00;;;;;;4905736;29;20459;-83
2024/03/25 09:31:16;;;;;;;7.83;7.53;;;12.00;8.40;;;;;;4922248;29;20444;-81
2024/03/25 09:34:11;;;;;;;8.17;7.77;;;12.00;7.60;;;;;;4908923;29;20447;-83
2024/03/25 09:44:05;;;;;;;8.70;8.10;;;12.60;8.30;;;;;;4827164;29;20434;-84
2024/03/25 09:46:41;;;;;;;8.67;8.27;;;12.60;8.50;;;;;;4812205;29;20843;-84
2024/03/25 09:53:40;;;;;;;7.63;7.33;;;12.80;7.50;;;;;;4773953;30;20531;-85
2024/03/25 10:06:54;;;;;;;7.53;7.10;;;12.70;6.70;;;;;;4770841;29;20524;-84
2024/03/25 10:09:28;;;;;;;7.97;7.67;;;12.70;5.80;;;;;;4916703;29;20448;-84
2024/03/25 10:12:50;;;;;;;8.07;7.70;;;12.60;6.00;;;;;;4909257;29;21005;-84
2024/03/25 10:18:57;;;;;;;8.17;7.70;;;12.50;6.40;;;;;;4899059;29;20583;-82
2024/03/25 10:21:23;;;;;;;8.17;7.77;;;12.40;7.10;;;;;;4914724;29;20866;-81
2024/03/25 10:23:49;;;;;;;8.20;7.70;;;12.30;7.10;;;;;;4915315;29;20203;-80
2024/03/25 10:26:28;;;;;;;7.60;7.30;;;12.30;7.40;;;;;;4936703;29;20612;-81
2024/03/25 10:29:08;;;;;;;7.60;7.00;;;12.30;6.60;;;;;;4922391;29;20631;-80
2024/03/25 10:31:34;;;;;;;8.03;7.63;;;12.30;6.90;;;;;;4921525;29;20427;-80
2024/03/25 10:34:00;;;;;;;7.30;6.90;;;12.40;6.80;;;;;;4939400;29;20444;-82
2024/03/25 10:36:42;;;;;;;8.20;7.40;;;12.50;7.00;;;;;;4939050;29;20420;-83
2024/03/25 10:39:09;;;;;;;7.03;6.70;;;12.70;6.60;;;;;;4923989;29;20492;-82
2024/03/25 10:41:36;;;;;;;8.20;7.90;;;12.90;6.80;;;;;;4939801;29;20423;-81
2024/03/25 10:44:06;;;;;;;8.70;8.20;;;13.10;6.00;;;;;;4904308;29;20455;-82
2024/03/25 10:46:32;;;;;;;8.70;8.20;;;13.20;5.50;;;;;;4916340;29;20432;-82
2024/03/25 10:49:07;;;;;;;9.90;9.40;;;13.10;5.80;;;;;;4937025;29;20476;-81
2024/03/25 10:51:36;;;;;;;8.40;7.77;;;12.80;6.30;;;;;;4925067;29;20251;-82
2024/03/25 10:54:03;;;;;;;8.77;8.37;;;12.80;7.30;;;;;;4909895;29;20504;-81
2024/03/25 10:56:29;;;;;;;8.93;8.53;;;12.70;6.70;;;;;;4913722;29;20425;-81
2024/03/25 10:59:13;;;;;;;8.23;7.83;;;12.60;8.10;;;;;;4932106;29;20488;-84
2024/03/25 11:01:38;;;;;;;8.50;7.90;;;12.50;6.80;;;;;;4912870;29;20250;-83
2024/03/25 11:04:09;;;;;;;8.63;8.23;;;12.30;7.30;;;;;;4936367;29;20448;-83
2024/03/25 11:06:47;;;;;;;8.23;7.47;;;12.30;6.50;;;;;;4917834;29;20722;-83
2024/03/25 11:09:33;;;;;;;8.23;7.73;;;12.30;6.80;;;;;;4895769;29;20467;-83
2024/03/25 11:12:05;;;;;;;8.20;7.70;;;12.20;6.20;;;;;;4915439;29;20484;-83
2024/03/25 11:14:35;;;;;;;7.40;7.10;;;12.10;6.50;;;;;;4936115;29;20471;-83
2024/03/25 11:17:02;;;;;;;8.67;8.07;;;11.90;6.30;;;;;;4924505;29;20464;-82
2024/03/25 11:19:39;;;;;;;8.27;7.77;;;12.00;6.50;;;;;;4916809;29;20884;-85
2024/03/25 11:22:35;;;;;;;7.00;6.60;;;12.00;7.30;;;;;;4944993;29;20431;-84
2024/03/25 11:29:22;;;;;;;8.03;7.53;;;12.00;7.50;;;;;;4953721;29;20814;-82
2024/03/25 11:32:47;;;;;;;7.70;7.20;;;11.80;7.00;;;;;;4926482;29;20499;-83
2024/03/25 11:36:33;;;;;;;7.90;7.40;;;11.70;7.50;;;;;;4877138;29;20493;-82
2024/03/25 11:43:20;;;;;;;8.43;7.80;;;11.80;8.90;;;;;;4791989;29;20436;-84
2024/03/25 11:46:55;;;;;;;7.60;7.00;;;12.00;7.60;;;;;;4779483;30;20448;-82
2024/03/25 11:49:26;;;;;;;7.13;6.73;;;12.10;7.70;;;;;;4755853;29;20457;-82
2024/03/25 11:51:53;;;;;;;8.00;7.27;;;12.10;7.50;;;;;;4881020;29;20441;-82
2024/03/25 11:54:19;;;;;;;8.27;7.77;;;12.10;7.70;;;;;;4935481;29;20483;-83
2024/03/25 12:07:54;;;;;;;8.10;7.40;;;12.10;6.20;;;;;;4881440;29;20462;-85
2024/03/25 12:13:13;;;;;;;8.30;7.70;;;12.10;6.40;;;;;;4938215;29;20423;-84
2024/03/25 12:15:39;;;;;;;8.37;8.00;;;12.10;6.50;;;;;;4899798;29;20479;-83
2024/03/25 12:18:07;;;;;;;8.53;8.13;;;12.20;6.70;;;;;;4931468;29;20428;-84
2024/03/25 12:20:39;;;;;;;8.90;8.33;;;12.30;6.30;;;;;;4928305;29;20175;-83
2024/03/25 12:23:08;;;;;;;10.30;9.70;;;12.30;6.90;;;;;;4940855;29;20426;-83
2024/03/25 12:25:34;;;;;;;8.00;7.70;;;12.10;6.20;;;;;;4912454;29;21628;-84
2024/03/25 12:28:02;;;;;;;8.50;8.10;;;12.10;6.70;;;;;;4937465;29;20944;-83
2024/03/25 12:30:43;;;;;;;8.80;8.30;;;12.20;6.30;;;;;;4931822;29;20428;-84
2024/03/25 12:33:10;;;;;;;10.10;8.93;;;12.20;5.90;;;;;;4939343;29;20424;-82
2024/03/25 12:35:36;;;;;;;8.10;7.70;;;12.40;6.10;;;;;;4920274;29;20479;-83
2024/03/25 12:38:02;;;;;;;8.70;8.10;;;12.40;5.40;;;;;;4931856;29;20425;-83
2024/03/25 12:40:30;;;;;;;8.57;8.07;;;12.40;5.20;;;;;;4919649;29;20439;-82
2024/03/25 12:42:58;;;;;;;8.53;8.03;;;12.40;5.30;;;;;;4954207;29;20564;-82
2024/03/25 12:45:24;;;;;;;9.47;8.97;;;12.40;6.00;;;;;;4917789;29;20445;-82
2024/03/25 12:47:52;;;;;;;9.30;8.70;;;12.50;6.00;;;;;;4932982;29;20786;-83
2024/03/25 12:50:23;;;;;;;8.53;8.10;;;12.40;6.00;;;;;;4933164;29;20431;-82
2024/03/25 12:52:49;;;;;;;9.00;8.50;;;12.40;6.10;;;;;;4931110;29;20435;-82
2024/03/25 12:55:15;;;;;;;9.93;9.27;;;12.30;5.90;;;;;;4915639;29;20482;-82
2024/03/25 12:57:41;;;;;;;9.70;9.30;;;12.40;6.50;;;;;;4930225;29;20185;-83
2024/03/25 13:00:08;;;;;;;9.33;8.90;;;12.40;6.90;;;;;;4917088;29;20413;-83
2024/03/25 13:02:33;;;;;;;9.30;8.70;;;12.50;5.80;;;;;;4931414;29;20420;-82
2024/03/25 13:04:59;;;;;;;8.57;8.13;;;12.50;6.20;;;;;;4921015;29;20468;-82
2024/03/25 13:07:28;;;;;;;8.60;8.20;;;12.40;6.10;;;;;;4932059;29;20204;-82
2024/03/25 13:09:54;;;;;;;8.30;7.93;;;12.50;5.50;;;;;;4933857;29;20188;-84
2024/03/25 13:12:22;;;;;;;8.23;7.83;;;12.60;4.30;;;;;;4950704;29;20881;-83
2024/03/25 13:14:47;;;;;;;8.40;8.10;;;12.70;3.10;;;;;;4914823;29;20268;-81
2024/03/25 13:17:13;;;;;;;7.93;7.53;;;12.70;3.00;;;;;;4917045;29;20421;-83
2024/03/25 13:19:39;;;;;;;8.03;7.63;;;12.80;2.80;;;;;;4933193;29;20184;-82
2024/03/25 13:22:05;;;;;;;6.97;6.67;;;12.80;2.40;;;;;;4924041;29;20203;-83
2024/03/25 13:24:31;;;;;;;8.90;8.50;;;12.90;2.40;;;;;;4934900;29;20291;-85
2024/03/25 13:26:57;;;;;;;8.23;7.93;;;12.90;3.90;;;;;;4922725;29;20429;-82
2024/03/25 13:29:22;;;;;;;8.60;8.10;;;12.90;2.70;;;;;;4915218;29;20275;-83
2024/03/25 13:31:48;;;;;;;8.10;7.70;;;12.90;2.90;;;;;;4933343;29;20248;-83
2024/03/25 13:34:55;;;;;;;8.33;7.93;;;12.90;2.20;;;;;;4934128;29;20208;-82
2024/03/25 13:37:21;;;;;;;7.00;6.70;;;13.00;4.30;;;;;;4916867;29;20212;-84
2024/03/25 13:39:46;;;;;;;7.93;7.43;;;13.10;4.00;;;;;;4931741;29;20413;-82
2024/03/25 13:42:12;;;;;;;7.30;7.00;;;13.10;3.50;;;;;;4914698;29;20183;-83
2024/03/25 13:44:38;;;;;;;7.50;7.00;;;13.10;3.20;;;;;;4917652;29;20228;-84
2024/03/25 13:47:06;;;;;;;7.90;7.50;;;13.20;4.00;;;;;;4927363;29;20208;-82
2024/03/25 13:49:36;;;;;;;7.30;6.90;;;13.10;4.00;;;;;;4930154;29;20801;-82
2024/03/25 13:52:03;;;;;;;7.73;7.20;;;13.20;2.50;;;;;;4917556;29;20832;-83
2024/03/25 13:54:30;;;;;;;7.77;7.37;;;13.10;2.30;;;;;;4933357;29;20516;-84
2024/03/25 13:56:58;;;;;;;8.87;8.37;;;13.20;2.80;;;;;;4938124;29;20457;-83
2024/03/25 13:59:24;;;;;;;8.10;7.60;;;13.20;1.70;;;;;;4924104;29;20484;-83
2024/03/25 14:01:49;;;;;;;8.60;8.20;;;13.20;2.20;;;;;;4932149;29;20789;-84
2024/03/25 14:04:15;;;;;;;8.77;8.37;;;13.20;2.50;;;;;;4939203;29;20199;-84
2024/03/25 14:06:41;;;;;;;8.30;7.80;;;13.20;2.20;;;;;;4923422;29;20188;-84
2024/03/25 14:09:08;;;;;;;8.90;8.50;;;13.20;2.70;;;;;;4922675;29;20266;-85
2024/03/25 14:11:35;;;;;;;8.10;7.60;;;13.30;3.70;;;;;;4923401;29;20436;-85
2024/03/25 14:14:01;;;;;;;7.97;7.57;;;13.30;1.80;;;;;;4922882;29;20499;-84
2024/03/25 14:16:26;;;;;;;8.40;8.00;;;13.30;2.20;;;;;;4922644;29;20443;-85
2024/03/25 14:18:52;;;;;;;8.70;8.40;;;13.30;2.00;;;;;;4919382;29;20437;-84
2024/03/25 14:21:17;;;;;;;8.13;7.73;;;13.30;2.20;;;;;;4904570;29;20181;-82
2024/03/25 14:23:43;;;;;;;7.63;7.33;;;13.40;2.00;;;;;;4915056;29;20207;-84
2024/03/25 14:26:10;;;;;;;7.70;7.30;;;13.40;2.80;;;;;;4908928;29;20250;-85
2024/03/25 14:28:37;;;;;;;8.40;7.90;;;13.50;4.10;;;;;;4904074;29;20268;-84
2024/03/25 14:31:03;;;;;;;7.90;7.50;;;13.40;3.80;;;;;;4909371;29;20420;-84
2024/03/25 14:33:29;;;;;;;7.70;7.30;;;13.40;3.10;;;;;;4922388;29;20788;-84
2024/03/25 14:35:55;;;;;;;6.83;6.53;;;13.40;1.90;;;;;;4921938;29;20460;-85
2024/03/25 14:38:20;;;;;;;7.80;7.40;;;13.30;1.50;;;;;;4922573;29;20184;-84
2024/03/25 14:40:47;;;;;;;8.13;7.80;;;13.30;1.80;;;;;;4920734;29;20255;-85
2024/03/25 14:43:19;;;;;;;7.60;7.27;;;13.30;1.70;;;;;;4915380;29;20667;-83
2024/03/25 14:45:44;;;;;;;8.50;8.10;;;13.30;2.80;;;;;;4930408;29;20984;-84
2024/03/25 14:48:10;;;;;;;8.13;7.73;;;13.30;2.30;;;;;;4928113;29;20455;-84
2024/03/25 14:50:36;;;;;;;8.10;7.50;;;13.30;1.60;;;;;;4930158;29;20200;-83
2024/03/25 14:53:06;;;;;;;8.10;7.60;;;13.20;1.50;;;;;;4921210;29;20180;-83
2024/03/25 14:55:34;;;;;;;7.57;7.17;;;13.20;2.70;;;;;;4912871;29;21026;-83
2024/03/25 14:57:59;;;;;;;7.87;7.47;;;13.10;1.80;;;;;;4924938;29;20514;-83
2024/03/25 15:00:25;;;;;;;8.07;7.67;;;13.20;3.30;;;;;;4906121;29;20952;-83
2024/03/25 15:02:51;;;;;;;7.87;7.47;;;13.20;2.50;;;;;;4903744;29;20671;-84
2024/03/25 15:05:18;;;;;;;8.93;8.33;;;13.30;2.00;;;;;;4920281;29;20641;-83
2024/03/25 15:07:44;;;;;;;8.40;8.10;;;13.30;2.30;;;;;;4920579;29;20424;-83
2024/03/25 15:10:10;;;;;;;7.70;7.30;;;13.40;4.20;;;;;;4911058;29;20429;-83
2024/03/25 15:12:36;;;;;;;7.70;7.40;;;13.40;3.00;;;;;;4917465;29;20431;-82
2024/03/25 15:15:07;;;;;;;8.07;7.57;;;13.40;2.70;;;;;;4913834;29;20479;-83
2024/03/25 15:17:33;;;;;;;7.87;7.37;;;13.40;2.30;;;;;;4913797;29;20298;-83
2024/03/25 15:20:05;;;;;;;7.30;7.00;;;13.40;2.80;;;;;;4909366;29;20459;-83
2024/03/25 15:22:31;;;;;;;7.23;6.93;;;13.40;2.60;;;;;;4902980;29;20435;-83
2024/03/25 15:24:56;;;;;;;8.53;8.00;;;13.30;2.40;;;;;;4906828;29;20455;-83
2024/03/25 15:27:23;;;;;;;7.10;6.70;;;13.30;4.10;;;;;;4922616;29;20259;-83
2024/03/25 15:29:51;;;;;;;7.33;6.93;;;13.30;2.30;;;;;;4918615;29;20189;-83
2024/03/25 15:32:16;;;;;;;6.97;6.57;;;13.30;2.50;;;;;;4910442;29;20428;-82
2024/03/25 15:34:42;;;;;;;7.37;6.97;;;13.30;1.70;;;;;;4918642;29;20471;-83
2024/03/25 15:37:10;;;;;;;6.90;6.50;;;13.40;3.10;;;;;;4918884;29;20180;-83
2024/03/25 15:39:35;;;;;;;5.97;5.67;;;13.30;1.60;;;;;;4905041;29;20189;-84
2024/03/25 15:42:02;;;;;;;6.30;6.00;;;13.30;1.80;;;;;;4904869;29;20452;-84
2024/03/25 15:44:28;;;;;;;6.60;6.10;;;13.40;2.10;;;;;;4907964;29;20452;-83
2024/03/25 15:46:53;;;;;;;6.50;6.17;;;13.30;2.10;;;;;;4907086;29;20428;-82
2024/03/25 15:49:19;;;;;;;6.87;6.50;;;13.20;1.50;;;;;;4923036;29;20298;-83
2024/03/25 15:51:45;;;;;;;6.40;6.10;;;13.20;2.10;;;;;;4903413;29;20219;-82
2024/03/25 15:54:10;;;;;;;7.13;6.77;;;13.20;1.90;;;;;;4911899;29;20212;-84
2024/03/25 15:56:39;;;;;;;6.17;5.93;;;13.20;2.00;;;;;;4917984;29;20195;-84
2024/03/25 15:59:10;;;;;;;6.40;6.10;;;13.20;1.50;;;;;;4908414;29;20638;-83
2024/03/25 16:01:36;;;;;;;6.30;6.10;;;13.30;2.00;;;;;;4902995;29;20450;-84
2024/03/25 16:04:01;;;;;;;6.80;6.30;;;13.40;1.70;;;;;;4906706;29;20453;-83
2024/03/25 16:06:27;;;;;;;7.73;7.33;;;13.40;4.30;;;;;;4912805;29;20255;-83
2024/03/25 16:08:53;;;;;;;6.53;6.20;;;13.40;1.00;;;;;;4909566;29;20191;-83
2024/03/25 16:11:18;;;;;;;5.70;5.50;;;13.40;1.00;;;;;;4923829;29;20179;-83
2024/03/25 16:13:45;;;;;;;5.97;5.57;;;13.40;1.00;;;;;;4919700;29;20220;-82
2024/03/25 16:16:11;;;;;;;6.40;5.93;;;13.40;1.90;;;;;;4918972;29;20209;-82
2024/03/25 16:18:36;;;;;;;6.10;5.80;;;13.40;1.00;;;;;;4918927;29;20518;-82
2024/03/25 16:21:03;;;;;;;6.50;6.10;;;13.40;1.00;;;;;;4916640;29;20472;-82
2024/03/25 16:23:29;;;;;;;5.50;5.20;;;13.40;1.00;;;;;;4917807;29;20188;-82
2024/03/25 16:25:55;;;;;;;6.40;6.00;;;13.40;1.00;;;;;;4920457;29;20432;-82
2024/03/25 16:28:21;;;;;;;5.93;5.73;;;13.50;1.00;;;;;;4921927;29;20424;-82
2024/03/25 16:30:47;;;;;;;6.10;5.80;;;13.60;1.00;;;;;;4940303;29;20423;-82
2024/03/25 16:33:12;;;;;;;5.00;4.90;;;13.60;1.00;;;;;;4923112;29;20184;-83
2024/03/25 16:35:38;;;;;;;6.10;5.80;;;13.60;1.00;;;;;;4913997;29;20228;-82
2024/03/25 16:38:04;;;;;;;5.47;5.17;;;13.60;1.00;;;;;;4912120;29;20180;-82
2024/03/25 16:40:30;;;;;;;6.70;6.40;;;13.60;1.00;;;;;;4916107;29;20604;-82
2024/03/25 16:43:17;;;;;;;6.60;6.20;;;13.60;1.00;;;;;;4925365;29;20495;-84
2024/03/25 16:45:42;;;;;;;5.90;5.40;;;13.60;1.00;;;;;;4908279;29;20280;-83
2024/03/25 16:48:11;;;;;;;5.70;5.30;;;13.60;1.00;;;;;;4911213;29;20440;-82
2024/03/25 16:50:36;;;;;;;6.67;6.37;;;13.60;1.00;;;;;;4920949;29;20644;-83
2024/03/25 16:53:04;;;;;;;6.43;5.87;;;13.70;1.00;;;;;;4907664;29;20439;-83
2024/03/25 16:55:31;;;;;;;6.30;5.90;;;13.70;1.00;;;;;;4908185;29;20239;-83
2024/03/25 16:57:56;;;;;;;6.73;6.23;;;13.60;1.00;;;;;;4907103;29;21024;-82
2024/03/25 17:00:24;;;;;;;6.37;6.07;;;13.60;1.00;;;;;;4931352;29;20420;-83
2024/03/25 17:02:50;;;;;;;6.63;6.33;;;13.60;1.00;;;;;;4925653;29;20187;-81
2024/03/25 17:05:15;;;;;;;6.40;6.10;;;13.50;1.00;;;;;;4925978;29;20459;-83
2024/03/25 17:07:44;;;;;;;6.17;5.97;;;13.30;1.00;;;;;;4914430;29;20283;-85
2024/03/25 17:10:09;;;;;;;5.80;5.60;;;13.20;1.00;;;;;;4912696;29;20551;-84
2024/03/25 17:12:37;;;;;;;6.47;5.93;;;13.20;1.00;;;;;;4920884;29;20430;-84
2024/03/25 17:15:07;;;;;;;7.10;6.57;;;13.30;1.00;;;;;;4929982;29;20236;-85
2024/03/25 17:17:34;;;;;;;6.30;6.00;;;13.20;1.00;;;;;;4920826;29;21016;-83
2024/03/25 17:20:20;;;;;;;6.33;6.03;;;13.20;1.00;;;;;;4922755;29;20440;-83
2024/03/25 17:22:49;;;;;;;6.40;6.10;;;13.10;1.00;;;;;;4911256;29;20453;-84
2024/03/25 17:25:18;;;;;;;5.33;5.03;;;13.10;1.00;;;;;;4913156;29;20738;-83
2024/03/25 17:27:45;;;;;;;6.43;6.13;;;13.20;1.00;;;;;;4915796;29;20467;-84
2024/03/25 17:30:47;;;;;;;;;;;;;;;;;;;;;
2024/03/25 17:33:16;;;;;;;6.17;5.90;;;13.20;1.00;;;;;;4933991;29;20519;-83
2024/03/25 17:35:41;;;;;;;7.00;6.63;;;13.10;1.00;;;;;;4922132;29;20472;-84
2024/03/25 17:38:10;;;;;;;6.20;5.90;;;13.00;1.00;;;;;;4931677;29;20431;-84
2024/03/25 17:40:37;;;;;;;6.30;5.90;;;13.00;1.00;;;;;;4922766;29;20185;-83
2024/03/25 17:43:04;;;;;;;6.87;6.53;;;13.00;1.00;;;;;;4927904;29;20503;-84
2024/03/25 17:45:32;;;;;;;6.47;6.10;;;13.00;1.00;;;;;;4931856;29;20450;-84
2024/03/25 17:47:58;;;;;;;6.00;5.70;;;12.90;1.00;;;;;;4914302;29;20459;-83
2024/03/25 17:50:23;;;;;;;7.50;6.90;;;13.00;1.00;;;;;;4929377;29;20423;-83
2024/03/25 17:52:51;;;;;;;6.43;6.13;;;13.00;1.00;;;;;;4923838;29;20227;-83
2024/03/25 17:55:17;;;;;;;6.13;5.93;;;12.90;1.10;;;;;;4907692;29;20220;-83
2024/03/25 17:57:43;;;;;;;6.20;5.93;;;12.90;1.00;;;;;;4914068;29;20443;-83
2024/03/25 18:00:19;;;;;;;7.50;7.10;;;12.80;1.20;;;;;;4905254;29;20662;-84
2024/03/25 18:02:53;;;;;;;6.23;5.80;;;12.70;1.00;;;;;;4906773;29;20177;-84
2024/03/25 18:05:20;;;;;;;6.00;5.60;;;12.60;1.00;;;;;;4927950;29;20453;-84
2024/03/25 18:07:47;;;;;;;7.03;6.63;;;12.70;1.00;;;;;;4945143;29;20507;-82
2024/03/25 18:10:13;;;;;;;6.63;6.23;;;12.70;1.00;;;;;;4944007;29;20448;-84
2024/03/25 18:12:39;;;;;;;6.60;6.20;;;12.60;1.00;;;;;;4927903;29;20440;-84
2024/03/25 18:15:07;;;;;;;6.37;6.07;;;12.60;1.30;;;;;;4924242;29;20877;-86
2024/03/25 18:17:33;;;;;;;6.30;5.87;;;12.60;1.20;;;;;;4921841;29;20181;-85
2024/03/25 18:20:04;;;;;;;6.10;5.80;;;12.70;1.40;;;;;;4923679;29;20748;-85
2024/03/25 18:22:33;;;;;;;6.47;6.17;;;12.70;1.50;;;;;;4924664;29;20172;-85
2024/03/25 18:25:13;;;;;;;;;;;;;;;;;;;;;
2024/03/25 18:28:57;;;;;;;8.07;7.57;;;12.60;2.20;;;;;;4920217;29;20520;-85
2024/03/25 18:31:09;;;;;;;7.83;6.40;;;12.60;2.00;;;;;;4908211;29;20468;-86
2024/03/25 18:33:38;;;;;;;6.17;5.87;;;12.60;1.40;;;;;;4906970;29;20464;-84
2024/03/25 18:36:04;;;;;;;6.83;6.33;;;12.60;1.10;;;;;;4907085;29;20464;-84
2024/03/25 18:42:36;;;;;;;;;;;;;;;;;;;;;
2024/03/25 18:45:32;;;;;;;6.27;5.90;;;12.50;1.70;;;;;;4806493;29;20439;-85
2024/03/25 18:48:00;;;;;;;5.67;5.23;;;12.50;3.20;;;;;;4920716;29;20531;-85
2024/03/25 18:50:26;;;;;;;6.77;6.37;;;12.50;3.50;;;;;;4908053;29;20425;-86
2024/03/25 18:52:52;;;;;;;5.83;5.53;;;12.60;2.60;;;;;;4907735;29;20800;-85
2024/03/25 18:55:17;;;;;;;5.70;5.40;;;12.60;2.70;;;;;;4905255;29;20225;-83
2024/03/25 18:57:43;;;;;;;6.30;5.90;;;12.50;3.30;;;;;;4914735;29;20184;-83
2024/03/25 19:00:10;;;;;;;5.60;5.20;;;12.40;1.70;;;;;;4924781;29;20539;-84
2024/03/25 19:02:37;;;;;;;6.07;5.67;;;12.40;2.40;;;;;;4916942;29;20204;-84
2024/03/25 19:05:03;;;;;;;5.97;5.60;;;12.40;3.40;;;;;;4908267;29;20456;-82
2024/03/25 19:07:35;;;;;;;5.70;5.40;;;12.40;3.00;;;;;;4924248;29;20415;-83
2024/03/25 19:10:01;;;;;;;6.40;5.93;;;12.40;1.80;;;;;;4912739;29;20468;-82
2024/03/25 19:12:26;;;;;;;7.10;6.60;;;12.30;2.30;;;;;;4903590;29;20505;-83
2024/03/25 19:14:53;;;;;;;6.10;5.73;;;12.30;1.80;;;;;;4904174;29;20488;-82
2024/03/25 19:17:18;;;;;;;7.00;6.50;;;12.20;3.00;;;;;;4903066;29;20267;-81
2024/03/25 19:19:44;;;;;;;6.00;5.67;;;12.30;2.60;;;;;;4903069;29;20937;-82
2024/03/25 19:22:09;;;;;;;6.23;5.83;;;12.30;3.20;;;;;;4920563;29;20181;-81
2024/03/25 19:24:35;;;;;;;6.00;5.60;;;12.30;2.60;;;;;;4915857;29;20669;-81
2024/03/25 19:27:01;;;;;;;8.27;7.67;;;12.30;3.40;;;;;;4917366;29;20181;-82
2024/03/25 19:29:27;;;;;;;6.80;6.23;;;12.20;3.20;;;;;;4914761;29;20212;-81
2024/03/25 19:31:55;;;;;;;6.77;6.30;;;12.20;3.60;;;;;;4919064;29;20423;-83
2024/03/25 19:34:21;;;;;;;5.90;5.50;;;12.20;3.40;;;;;;4917173;29;20313;-82
2024/03/25 19:36:48;;;;;;;6.23;5.80;;;12.10;2.60;;;;;;4913701;29;20541;-83
2024/03/25 19:39:14;;;;;;;6.47;6.07;;;12.20;3.90;;;;;;4908997;29;20672;-82
2024/03/25 19:41:40;;;;;;;6.10;5.77;;;12.30;3.50;;;;;;4937857;29;20444;-82
2024/03/25 19:44:06;;;;;;;6.17;5.87;;;12.40;3.50;;;;;;4939289;29;20278;-82
2024/03/25 19:46:32;;;;;;;6.17;5.67;;;12.30;2.80;;;;;;4919350;29;20192;-82
2024/03/25 19:48:58;;;;;;;6.30;5.70;;;12.20;3.40;;;;;;4914189;29;20443;-82
2024/03/25 19:51:37;;;;;;;6.93;6.47;;;12.20;3.10;;;;;;4918871;29;20236;-82
2024/03/25 19:54:05;;;;;;;6.60;6.10;;;12.10;3.10;;;;;;4900293;29;20451;-83
2024/03/25 19:56:31;;;;;;;5.77;5.47;;;12.00;3.30;;;;;;4921758;29;20511;-83
2024/03/25 19:58:57;;;;;;;6.40;6.00;;;11.90;3.40;;;;;;4919268;29;20463;-83
2024/03/25 20:01:23;;;;;;;6.50;6.00;;;11.80;3.60;;;;;;4902839;29;20697;-82
2024/03/25 20:03:51;;;;;;;6.30;5.90;;;11.80;4.40;;;;;;4904099;29;20204;-82
2024/03/25 20:06:18;;;;;;;6.80;6.40;;;11.90;4.10;;;;;;4903735;29;20248;-85
2024/03/25 20:08:43;;;;;;;6.17;5.87;;;12.00;3.80;;;;;;4921734;29;20938;-82
2024/03/25 20:11:12;;;;;;;6.57;6.17;;;12.00;3.40;;;;;;4908204;29;20523;-83
2024/03/25 20:13:38;;;;;;;6.87;6.27;;;12.00;4.00;;;;;;4899798;29;20224;-84
2024/03/25 20:16:07;;;;;;;6.27;5.77;;;11.90;3.80;;;;;;4894495;29;20514;-82
2024/03/25 20:18:32;;;;;;;6.63;6.20;;;12.00;4.40;;;;;;4907009;29;20184;-82
2024/03/25 20:20:58;;;;;;;6.67;6.27;;;12.00;3.90;;;;;;4903787;29;20439;-83
2024/03/25 20:23:23;;;;;;;6.27;5.97;;;12.00;4.80;;;;;;4904317;29;20288;-83
2024/03/25 20:25:49;;;;;;;6.00;5.70;;;12.00;4.40;;;;;;4904925;29;20279;-83
2024/03/25 20:28:17;;;;;;;6.97;6.47;;;12.10;4.50;;;;;;4940224;29;20582;-83
2024/03/25 20:30:42;;;;;;;5.70;5.40;;;12.00;3.90;;;;;;4906908;29;20208;-83
2024/03/25 20:33:09;;;;;;;5.90;5.60;;;11.90;4.20;;;;;;4905405;29;20428;-84
2024/03/25 20:35:35;;;;;;;5.97;5.67;;;11.80;4.00;;;;;;4920509;29;20239;-82
2024/03/25 20:38:04;;;;;;;6.93;6.30;;;11.80;4.10;;;;;;4911957;29;20623;-83
2024/03/25 20:40:30;;;;;;;5.83;5.63;;;11.90;4.60;;;;;;4920145;29;20412;-82
2024/03/25 20:42:56;;;;;;;6.37;5.97;;;11.90;4.80;;;;;;4924488;29;20423;-83
2024/03/25 20:45:21;;;;;;;6.70;6.20;;;11.90;4.30;;;;;;4907592;29;20208;-83
2024/03/25 20:47:48;;;;;;;6.40;6.00;;;11.90;4.40;;;;;;4930907;29;20195;-84
2024/03/25 20:50:13;;;;;;;7.20;6.80;;;11.80;4.10;;;;;;4904907;29;20189;-82
2024/03/25 20:52:39;;;;;;;6.20;5.70;;;11.90;5.00;;;;;;4923475;29;20428;-81
2024/03/25 20:55:09;;;;;;;6.87;6.33;;;12.00;4.80;;;;;;4906737;29;20215;-80
2024/03/25 20:57:35;;;;;;;7.20;6.50;;;12.00;4.80;;;;;;4909471;29;20192;-82
2024/03/25 21:00:05;;;;;;;7.07;6.77;;;12.10;4.50;;;;;;4908629;29;20428;-82
2024/03/25 21:02:30;;;;;;;6.50;6.10;;;12.10;4.30;;;;;;4907211;29;20455;-81
2024/03/25 21:04:56;;;;;;;6.10;5.70;;;12.00;5.10;;;;;;4906436;29;20457;-80
2024/03/25 21:07:21;;;;;;;6.37;5.97;;;12.10;5.30;;;;;;4906925;29;20213;-79
2024/03/25 21:09:47;;;;;;;7.20;6.60;;;12.10;5.40;;;;;;4913233;29;20181;-81
2024/03/25 21:12:12;;;;;;;5.93;5.63;;;12.10;4.70;;;;;;4915217;29;20747;-80
2024/03/25 21:14:38;;;;;;;6.70;6.30;;;12.10;4.90;;;;;;4914510;29;20225;-82
2024/03/25 21:17:05;;;;;;;6.00;5.60;;;12.20;4.60;;;;;;4919875;29;20217;-82
2024/03/25 21:19:34;;;;;;;6.70;6.30;;;12.20;4.30;;;;;;4915385;29;20185;-82
2024/03/25 21:21:59;;;;;;;6.63;6.13;;;12.20;4.50;;;;;;4935967;29;20453;-83
2024/03/25 21:24:25;;;;;;;7.47;6.97;;;12.20;4.30;;;;;;4911849;29;20456;-86
2024/03/25 21:26:51;;;;;;;6.67;6.27;;;12.20;4.10;;;;;;4924494;29;20211;-85
2024/03/25 21:29:17;;;;;;;7.47;6.97;;;12.20;4.40;;;;;;4947751;29;20184;-84
2024/03/25 21:31:42;;;;;;;6.13;5.83;;;12.30;4.10;;;;;;4935557;29;20419;-84
2024/03/25 21:34:08;;;;;;;5.90;5.60;;;12.20;4.80;;;;;;4936874;29;20204;-89
2024/03/25 21:36:34;;;;;;;6.40;6.00;;;12.20;4.50;;;;;;4920393;29;20184;-85
2024/03/25 21:39:08;;;;;;;6.60;6.10;;;12.20;4.20;;;;;;4921935;29;20173;-87
2024/03/25 21:41:47;;;;;;;6.17;5.87;;;12.20;4.80;;;;;;4944393;29;20454;-88
2024/03/25 21:44:12;;;;;;;7.17;6.67;;;12.20;4.60;;;;;;4944488;29;20443;-88
2024/03/25 21:46:38;;;;;;;6.10;5.80;;;12.10;4.70;;;;;;4932651;29;20489;-88
2024/03/25 21:49:04;;;;;;;6.83;6.43;;;12.10;4.40;;;;;;4919530;29;20189;-85
2024/03/25 21:51:30;;;;;;;6.03;5.63;;;12.00;5.00;;;;;;4921286;29;20173;-86
2024/03/25 21:53:58;;;;;;;8.20;7.60;;;11.90;5.50;;;;;;4925121;29;20231;-89
2024/03/25 21:56:23;;;;;;;10.43;9.63;;;11.80;5.60;;;;;;4923930;29;20212;-87
2024/03/25 21:58:49;;;;;;;7.20;6.80;;;11.90;5.50;;;;;;4925491;29;20445;-86
2024/03/25 22:01:15;;;;;;;6.80;6.30;;;11.90;5.90;;;;;;4932724;29;20188;-86
2024/03/25 22:03:49;;;;;;;7.00;6.60;;;11.70;5.10;;;;;;4923696;29;20292;-86
2024/03/25 22:06:14;;;;;;;6.70;6.30;;;11.70;5.80;;;;;;4916692;29;20192;-83
2024/03/25 22:08:45;;;;;;;6.70;6.30;;;11.70;5.70;;;;;;4918168;29;20485;-85
2024/03/25 22:11:11;;;;;;;6.10;5.70;;;11.70;5.60;;;;;;4912308;29;20177;-79
2024/03/25 22:13:37;;;;;;;6.53;6.13;;;11.70;5.50;;;;;;4912340;29;20440;-82
2024/03/25 22:16:03;;;;;;;6.67;6.27;;;11.70;5.50;;;;;;4914705;29;20479;-80
2024/03/25 22:18:29;;;;;;;5.87;5.47;;;11.70;5.60;;;;;;4942552;29;20191;-82
2024/03/25 22:20:55;;;;;;;6.43;6.13;;;11.60;5.30;;;;;;4921901;29;20421;-81
2024/03/25 22:23:23;;;;;;;5.70;5.23;;;11.60;5.90;;;;;;4906772;29;20237;-82
2024/03/25 22:25:49;;;;;;;6.30;5.90;;;11.60;5.70;;;;;;4924046;29;20205;-82
2024/03/25 22:28:15;;;;;;;6.07;5.67;;;11.60;5.40;;;;;;4901315;29;20449;-81
2024/03/25 22:30:41;;;;;;;6.33;5.93;;;11.60;5.50;;;;;;4903729;29;20270;-82
2024/03/25 22:33:06;;;;;;;6.00;5.70;;;11.60;5.90;;;;;;4913896;29;20466;-82
2024/03/25 22:35:32;;;;;;;6.50;6.00;;;11.70;6.10;;;;;;4928366;29;20268;-82
2024/03/25 22:37:59;;;;;;;6.17;5.77;;;11.60;5.70;;;;;;4917682;29;20197;-81
2024/03/25 22:40:24;;;;;;;6.07;5.77;;;11.60;6.00;;;;;;4901541;29;20184;-83
2024/03/25 22:42:50;;;;;;;6.80;6.40;;;11.70;6.00;;;;;;4916372;29;20429;-82
2024/03/25 22:45:15;;;;;;;6.60;6.20;;;11.70;6.10;;;;;;4903045;29;20260;-82
2024/03/25 22:47:41;;;;;;;6.37;5.90;;;11.60;5.80;;;;;;4903777;29;20180;-83
2024/03/25 22:50:07;;;;;;;6.00;5.60;;;11.60;6.90;;;;;;4905828;29;20661;-83
2024/03/25 22:52:32;;;;;;;5.97;5.57;;;11.40;6.20;;;;;;4917458;29;20270;-84
2024/03/25 22:55:00;;;;;;;5.90;5.57;;;11.40;6.80;;;;;;4907678;29;20504;-83